sensor_id;sensor_type;location;lat;lon;timestamp;temperature;humidity
30889;DHT22;51092;50.874;7.024;2024-01-30T00:00:08;8.00;92.80
30889;DHT22;51092;50.874;7.024;2024-01-30T00:01:10;8.00;93.30
30889;DHT22;51092;50.874;7.024;2024-01-30T00:02:12;8.00;92.90
30889;DHT22;51092;50.874;7.024;2024-01-30T00:03:13;8.00;93.10
30889;DHT22;51092;50.874;7.024;2024-01-30T00:04:16;8.00;93.20
30889;DHT22;51092;50.874;7.024;2024-01-30T00:05:18;8.10;93.20
30889;DHT22;51092;50.874;7.024;2024-01-30T00:06:20;7.90;93.10
30889;DHT22;51092;50.874;7.024;2024-01-30T00:07:22;8.00;93.50
30889;DHT22;51092;50.874;7.024;2024-01-30T00:08:24;8.10;93.40
30889;DHT22;51092;50.874;7.024;2024-01-30T00:09:26;8.10;93.10
30889;DHT22;51092;50.874;7.024;2024-01-30T00:10:29;8.10;93.20
30889;DHT22;51092;50.874;7.024;2024-01-30T00:11:30;7.90;93.10
30889;DHT22;51092;50.874;7.024;2024-01-30T00:12:34;7.90;93.50
30889;DHT22;51092;50.874;7.024;2024-01-30T00:13:35;8.00;93.80
30889;DHT22;51092;50.874;7.024;2024-01-30T00:14:38;7.90;93.60
30889;DHT22;51092;50.874;7.024;2024-01-30T00:15:39;7.90;93.50
30889;DHT22;51092;50.874;7.024;2024-01-30T00:16:42;7.90;93.70
30889;DHT22;51092;50.874;7.024;2024-01-30T00:17:43;7.90;93.70
30889;DHT22;51092;50.874;7.024;2024-01-30T00:18:46;7.90;93.80
30889;DHT22;51092;50.874;7.024;2024-01-30T00:19:47;7.90;93.40
30889;DHT22;51092;50.874;7.024;2024-01-30T00:20:48;8.10;93.70
30889;DHT22;51092;50.874;7.024;2024-01-30T00:21:51;8.00;93.30
30889;DHT22;51092;50.874;7.024;2024-01-30T00:22:52;8.00;93.20
30889;DHT22;51092;50.874;7.024;2024-01-30T00:23:57;8.00;92.80
30889;DHT22;51092;50.874;7.024;2024-01-30T00:25:00;8.00;92.80
30889;DHT22;51092;50.874;7.024;2024-01-30T00:26:01;8.00;92.90
30889;DHT22;51092;50.874;7.024;2024-01-30T00:27:04;7.90;93.00
30889;DHT22;51092;50.874;7.024;2024-01-30T00:28:07;7.80;93.30
30889;DHT22;51092;50.874;7.024;2024-01-30T00:29:09;7.70;94.20
30889;DHT22;51092;50.874;7.024;2024-01-30T00:30:12;7.70;95.00
30889;DHT22;51092;50.874;7.024;2024-01-30T00:31:14;7.80;95.80
30889;DHT22;51092;50.874;7.024;2024-01-30T00:32:16;7.80;95.80
30889;DHT22;51092;50.874;7.024;2024-01-30T00:33:20;7.90;95.30
30889;DHT22;51092;50.874;7.024;2024-01-30T00:34:21;7.80;95.00
30889;DHT22;51092;50.874;7.024;2024-01-30T00:35:23;7.90;95.30
30889;DHT22;51092;50.874;7.024;2024-01-30T00:36:25;7.90;94.90
30889;DHT22;51092;50.874;7.024;2024-01-30T00:37:26;7.80;94.70
30889;DHT22;51092;50.874;7.024;2024-01-30T00:38:28;7.80;94.80
30889;DHT22;51092;50.874;7.024;2024-01-30T00:39:29;7.70;94.90
30889;DHT22;51092;50.874;7.024;2024-01-30T00:40:31;7.80;94.90
30889;DHT22;51092;50.874;7.024;2024-01-30T00:41:32;7.70;94.70
30889;DHT22;51092;50.874;7.024;2024-01-30T00:42:36;7.70;94.90
30889;DHT22;51092;50.874;7.024;2024-01-30T00:43:38;7.80;95.40
30889;DHT22;51092;50.874;7.024;2024-01-30T00:44:40;7.80;95.80
30889;DHT22;51092;50.874;7.024;2024-01-30T00:45:43;7.80;95.40
30889;DHT22;51092;50.874;7.024;2024-01-30T00:46:45;7.80;95.30
30889;DHT22;51092;50.874;7.024;2024-01-30T00:47:47;7.80;95.70
30889;DHT22;51092;50.874;7.024;2024-01-30T00:48:49;7.80;95.30
30889;DHT22;51092;50.874;7.024;2024-01-30T00:49:50;7.70;95.30
30889;DHT22;51092;50.874;7.024;2024-01-30T00:50:55;7.70;95.40
30889;DHT22;51092;50.874;7.024;2024-01-30T00:51:57;7.70;95.70
30889;DHT22;51092;50.874;7.024;2024-01-30T00:52:59;7.60;95.70
30889;DHT22;51092;50.874;7.024;2024-01-30T00:54:01;7.60;96.20
30889;DHT22;51092;50.874;7.024;2024-01-30T00:55:04;7.60;96.40
30889;DHT22;51092;50.874;7.024;2024-01-30T00:56:06;7.70;97.30
30889;DHT22;51092;50.874;7.024;2024-01-30T00:57:09;7.70;96.60
30889;DHT22;51092;50.874;7.024;2024-01-30T00:58:10;7.70;96.40
30889;DHT22;51092;50.874;7.024;2024-01-30T00:59:14;7.80;96.60
30889;DHT22;51092;50.874;7.024;2024-01-30T01:00:16;7.80;96.40
30889;DHT22;51092;50.874;7.024;2024-01-30T01:01:19;7.80;95.50
30889;DHT22;51092;50.874;7.024;2024-01-30T01:02:20;7.80;95.10
30889;DHT22;51092;50.874;7.024;2024-01-30T01:03:23;7.80;95.20
30889;DHT22;51092;50.874;7.024;2024-01-30T01:04:24;7.80;95.10
30889;DHT22;51092;50.874;7.024;2024-01-30T01:05:26;7.70;95.10
30889;DHT22;51092;50.874;7.024;2024-01-30T01:06:29;7.80;95.10
30889;DHT22;51092;50.874;7.024;2024-01-30T01:07:30;7.80;95.00
30889;DHT22;51092;50.874;7.024;2024-01-30T01:08:33;7.80;95.20
30889;DHT22;51092;50.874;7.024;2024-01-30T01:09:35;7.70;95.20
30889;DHT22;51092;50.874;7.024;2024-01-30T01:10:37;7.80;95.50
30889;DHT22;51092;50.874;7.024;2024-01-30T01:11:45;7.90;95.40
30889;DHT22;51092;50.874;7.024;2024-01-30T01:12:48;8.00;94.70
30889;DHT22;51092;50.874;7.024;2024-01-30T01:13:50;8.10;94.00
30889;DHT22;51092;50.874;7.024;2024-01-30T01:14:53;8.00;93.40
30889;DHT22;51092;50.874;7.024;2024-01-30T01:15:55;8.00;93.50
30889;DHT22;51092;50.874;7.024;2024-01-30T01:16:57;8.00;93.80
30889;DHT22;51092;50.874;7.024;2024-01-30T01:17:59;8.00;93.80
30889;DHT22;51092;50.874;7.024;2024-01-30T01:19:01;7.90;93.90
30889;DHT22;51092;50.874;7.024;2024-01-30T01:20:04;7.90;93.60
30889;DHT22;51092;50.874;7.024;2024-01-30T01:21:07;8.00;93.60
30889;DHT22;51092;50.874;7.024;2024-01-30T01:22:08;8.00;93.40
30889;DHT22;51092;50.874;7.024;2024-01-30T01:23:11;8.00;93.40
30889;DHT22;51092;50.874;7.024;2024-01-30T01:24:15;8.00;93.20
30889;DHT22;51092;50.874;7.024;2024-01-30T01:25:18;7.90;93.40
30889;DHT22;51092;50.874;7.024;2024-01-30T01:26:19;8.00;93.70
30889;DHT22;51092;50.874;7.024;2024-01-30T01:27:22;8.00;93.60
30889;DHT22;51092;50.874;7.024;2024-01-30T01:28:24;8.00;93.50
30889;DHT22;51092;50.874;7.024;2024-01-30T01:29:26;8.00;93.30
30889;DHT22;51092;50.874;7.024;2024-01-30T01:30:31;7.80;93.50
30889;DHT22;51092;50.874;7.024;2024-01-30T01:31:33;7.80;93.60
30889;DHT22;51092;50.874;7.024;2024-01-30T01:32:35;7.90;93.90
30889;DHT22;51092;50.874;7.024;2024-01-30T01:33:36;8.00;94.20
30889;DHT22;51092;50.874;7.024;2024-01-30T01:34:39;7.90;93.60
30889;DHT22;51092;50.874;7.024;2024-01-30T01:35:53;7.90;94.00
30889;DHT22;51092;50.874;7.024;2024-01-30T01:36:55;8.10;93.60
30889;DHT22;51092;50.874;7.024;2024-01-30T01:37:56;8.00;93.10
30889;DHT22;51092;50.874;7.024;2024-01-30T01:39:00;8.00;93.40
30889;DHT22;51092;50.874;7.024;2024-01-30T01:40:01;8.00;93.50
30889;DHT22;51092;50.874;7.024;2024-01-30T01:41:03;7.90;93.40
30889;DHT22;51092;50.874;7.024;2024-01-30T01:42:05;8.00;93.50
30889;DHT22;51092;50.874;7.024;2024-01-30T01:43:07;8.00;93.10
30889;DHT22;51092;50.874;7.024;2024-01-30T01:44:09;8.00;93.50
30889;DHT22;51092;50.874;7.024;2024-01-30T01:45:12;8.10;93.30
30889;DHT22;51092;50.874;7.024;2024-01-30T01:46:14;8.20;93.10
30889;DHT22;51092;50.874;7.024;2024-01-30T01:47:17;8.10;92.80
30889;DHT22;51092;50.874;7.024;2024-01-30T01:48:19;8.10;92.70
30889;DHT22;51092;50.874;7.024;2024-01-30T01:49:23;8.20;92.70
30889;DHT22;51092;50.874;7.024;2024-01-30T01:50:25;8.20;92.20
30889;DHT22;51092;50.874;7.024;2024-01-30T01:51:29;8.10;92.50
30889;DHT22;51092;50.874;7.024;2024-01-30T01:52:32;8.00;92.80
30889;DHT22;51092;50.874;7.024;2024-01-30T01:53:35;8.00;92.80
30889;DHT22;51092;50.874;7.024;2024-01-30T01:54:36;8.00;93.00
30889;DHT22;51092;50.874;7.024;2024-01-30T01:55:39;7.90;93.20
30889;DHT22;51092;50.874;7.024;2024-01-30T01:56:41;8.10;93.40
30889;DHT22;51092;50.874;7.024;2024-01-30T01:57:44;8.00;93.00
30889;DHT22;51092;50.874;7.024;2024-01-30T01:58:48;7.90;93.40
30889;DHT22;51092;50.874;7.024;2024-01-30T01:59:52;8.00;93.60
30889;DHT22;51092;50.874;7.024;2024-01-30T02:00:56;8.00;93.40
30889;DHT22;51092;50.874;7.024;2024-01-30T02:02:02;8.20;93.20
30889;DHT22;51092;50.874;7.024;2024-01-30T02:03:05;8.20;92.80
30889;DHT22;51092;50.874;7.024;2024-01-30T02:04:08;8.20;92.40
30889;DHT22;51092;50.874;7.024;2024-01-30T02:05:10;8.20;92.30
30889;DHT22;51092;50.874;7.024;2024-01-30T02:06:13;8.20;92.30
30889;DHT22;51092;50.874;7.024;2024-01-30T02:07:15;8.30;92.40
30889;DHT22;51092;50.874;7.024;2024-01-30T02:08:17;8.20;92.10
30889;DHT22;51092;50.874;7.024;2024-01-30T02:09:19;8.20;92.10
30889;DHT22;51092;50.874;7.024;2024-01-30T02:10:22;8.20;92.00
30889;DHT22;51092;50.874;7.024;2024-01-30T02:11:24;8.20;92.10
30889;DHT22;51092;50.874;7.024;2024-01-30T02:12:25;8.20;92.30
30889;DHT22;51092;50.874;7.024;2024-01-30T02:13:27;8.30;92.20
30889;DHT22;51092;50.874;7.024;2024-01-30T02:14:29;8.20;92.00
30889;DHT22;51092;50.874;7.024;2024-01-30T02:15:31;8.00;92.30
30889;DHT22;51092;50.874;7.024;2024-01-30T02:16:33;8.10;92.50
30889;DHT22;51092;50.874;7.024;2024-01-30T02:17:37;8.20;92.60
30889;DHT22;51092;50.874;7.024;2024-01-30T02:18:38;8.20;92.60
30889;DHT22;51092;50.874;7.024;2024-01-30T02:19:44;8.20;92.30
30889;DHT22;51092;50.874;7.024;2024-01-30T02:20:49;8.40;91.90
30889;DHT22;51092;50.874;7.024;2024-01-30T02:21:54;8.30;92.00
30889;DHT22;51092;50.874;7.024;2024-01-30T02:22:56;8.20;91.70
30889;DHT22;51092;50.874;7.024;2024-01-30T02:24:00;8.00;92.30
30889;DHT22;51092;50.874;7.024;2024-01-30T02:25:03;8.10;92.40
30889;DHT22;51092;50.874;7.024;2024-01-30T02:26:05;8.00;92.80
30889;DHT22;51092;50.874;7.024;2024-01-30T02:27:08;8.10;92.90
30889;DHT22;51092;50.874;7.024;2024-01-30T02:28:09;8.00;92.80
30889;DHT22;51092;50.874;7.024;2024-01-30T02:29:11;8.00;93.00
30889;DHT22;51092;50.874;7.024;2024-01-30T02:30:12;7.90;93.30
30889;DHT22;51092;50.874;7.024;2024-01-30T02:31:14;8.00;93.50
30889;DHT22;51092;50.874;7.024;2024-01-30T02:32:16;7.90;93.30
30889;DHT22;51092;50.874;7.024;2024-01-30T02:33:17;7.90;93.50
30889;DHT22;51092;50.874;7.024;2024-01-30T02:34:18;7.80;93.70
30889;DHT22;51092;50.874;7.024;2024-01-30T02:35:19;7.80;94.10
30889;DHT22;51092;50.874;7.024;2024-01-30T02:36:21;7.90;94.10
30889;DHT22;51092;50.874;7.024;2024-01-30T02:37:24;7.80;94.30
30889;DHT22;51092;50.874;7.024;2024-01-30T02:38:27;7.90;94.20
30889;DHT22;51092;50.874;7.024;2024-01-30T02:39:28;7.90;94.20
30889;DHT22;51092;50.874;7.024;2024-01-30T02:40:31;8.00;94.00
30889;DHT22;51092;50.874;7.024;2024-01-30T02:41:32;8.00;93.80
30889;DHT22;51092;50.874;7.024;2024-01-30T02:42:35;8.00;93.30
30889;DHT22;51092;50.874;7.024;2024-01-30T02:43:36;8.20;93.20
30889;DHT22;51092;50.874;7.024;2024-01-30T02:44:38;8.10;92.80
30889;DHT22;51092;50.874;7.024;2024-01-30T02:45:40;8.10;92.40
30889;DHT22;51092;50.874;7.024;2024-01-30T02:46:42;8.00;92.70
30889;DHT22;51092;50.874;7.024;2024-01-30T02:47:45;8.00;92.90
30889;DHT22;51092;50.874;7.024;2024-01-30T02:48:46;8.20;92.90
30889;DHT22;51092;50.874;7.024;2024-01-30T02:49:49;8.10;92.50
30889;DHT22;51092;50.874;7.024;2024-01-30T02:50:50;8.10;92.60
30889;DHT22;51092;50.874;7.024;2024-01-30T02:51:54;8.30;92.40
30889;DHT22;51092;50.874;7.024;2024-01-30T02:52:57;8.20;92.00
30889;DHT22;51092;50.874;7.024;2024-01-30T02:54:00;8.00;92.40
30889;DHT22;51092;50.874;7.024;2024-01-30T02:55:01;8.20;92.30
30889;DHT22;51092;50.874;7.024;2024-01-30T02:56:04;8.00;92.40
30889;DHT22;51092;50.874;7.024;2024-01-30T02:57:06;8.10;92.90
30889;DHT22;51092;50.874;7.024;2024-01-30T02:58:09;8.20;92.30
30889;DHT22;51092;50.874;7.024;2024-01-30T02:59:10;8.20;92.30
30889;DHT22;51092;50.874;7.024;2024-01-30T03:00:13;8.10;92.40
30889;DHT22;51092;50.874;7.024;2024-01-30T03:01:15;8.30;92.10
30889;DHT22;51092;50.874;7.024;2024-01-30T03:02:17;8.40;91.60
30889;DHT22;51092;50.874;7.024;2024-01-30T03:03:19;8.30;91.40
30889;DHT22;51092;50.874;7.024;2024-01-30T03:04:22;8.20;91.70
30889;DHT22;51092;50.874;7.024;2024-01-30T03:05:25;8.20;91.60
30889;DHT22;51092;50.874;7.024;2024-01-30T03:06:27;8.30;91.70
30889;DHT22;51092;50.874;7.024;2024-01-30T03:07:29;8.30;91.70
30889;DHT22;51092;50.874;7.024;2024-01-30T03:08:33;8.30;91.60
30889;DHT22;51092;50.874;7.024;2024-01-30T03:09:36;8.40;91.70
30889;DHT22;51092;50.874;7.024;2024-01-30T03:10:39;8.30;91.30
30889;DHT22;51092;50.874;7.024;2024-01-30T03:11:40;8.30;91.30
30889;DHT22;51092;50.874;7.024;2024-01-30T03:12:43;8.30;91.40
30889;DHT22;51092;50.874;7.024;2024-01-30T03:13:44;8.20;91.30
30889;DHT22;51092;50.874;7.024;2024-01-30T03:14:46;8.10;92.00
30889;DHT22;51092;50.874;7.024;2024-01-30T03:15:47;8.20;92.00
30889;DHT22;51092;50.874;7.024;2024-01-30T03:16:49;8.20;91.80
30889;DHT22;51092;50.874;7.024;2024-01-30T03:17:49;8.10;92.30
30889;DHT22;51092;50.874;7.024;2024-01-30T03:18:52;8.20;92.30
30889;DHT22;51092;50.874;7.024;2024-01-30T03:19:54;8.20;91.80
30889;DHT22;51092;50.874;7.024;2024-01-30T03:20:55;8.20;91.90
30889;DHT22;51092;50.874;7.024;2024-01-30T03:21:57;8.30;92.00
30889;DHT22;51092;50.874;7.024;2024-01-30T03:22:59;8.20;91.60
30889;DHT22;51092;50.874;7.024;2024-01-30T03:24:03;8.00;92.00
30889;DHT22;51092;50.874;7.024;2024-01-30T03:25:05;7.90;92.50
30889;DHT22;51092;50.874;7.024;2024-01-30T03:26:07;7.90;92.70
30889;DHT22;51092;50.874;7.024;2024-01-30T03:27:10;7.80;93.20
30889;DHT22;51092;50.874;7.024;2024-01-30T03:28:13;7.80;93.60
30889;DHT22;51092;50.874;7.024;2024-01-30T03:29:14;7.80;93.80
30889;DHT22;51092;50.874;7.024;2024-01-30T03:30:17;7.80;93.80
30889;DHT22;51092;50.874;7.024;2024-01-30T03:31:18;7.70;94.00
30889;DHT22;51092;50.874;7.024;2024-01-30T03:32:21;8.00;94.60
30889;DHT22;51092;50.874;7.024;2024-01-30T03:33:22;7.90;93.60
30889;DHT22;51092;50.874;7.024;2024-01-30T03:34:25;7.80;93.60
30889;DHT22;51092;50.874;7.024;2024-01-30T03:35:26;7.70;93.90
30889;DHT22;51092;50.874;7.024;2024-01-30T03:36:28;7.70;94.10
30889;DHT22;51092;50.874;7.024;2024-01-30T03:37:31;7.70;94.20
30889;DHT22;51092;50.874;7.024;2024-01-30T03:38:33;7.80;94.50
30889;DHT22;51092;50.874;7.024;2024-01-30T03:39:36;7.70;94.40
30889;DHT22;51092;50.874;7.024;2024-01-30T03:40:38;7.70;94.70
30889;DHT22;51092;50.874;7.024;2024-01-30T03:41:42;7.70;94.60
30889;DHT22;51092;50.874;7.024;2024-01-30T03:42:44;7.60;94.90
30889;DHT22;51092;50.874;7.024;2024-01-30T03:43:47;7.60;95.10
30889;DHT22;51092;50.874;7.024;2024-01-30T03:44:50;7.50;95.40
30889;DHT22;51092;50.874;7.024;2024-01-30T03:45:54;7.60;95.70
30889;DHT22;51092;50.874;7.024;2024-01-30T03:46:57;7.60;95.40
30889;DHT22;51092;50.874;7.024;2024-01-30T03:47:58;7.70;95.70
30889;DHT22;51092;50.874;7.024;2024-01-30T03:49:01;7.60;95.20
30889;DHT22;51092;50.874;7.024;2024-01-30T03:50:03;7.50;95.60
30889;DHT22;51092;50.874;7.024;2024-01-30T03:51:06;7.40;96.10
30889;DHT22;51092;50.874;7.024;2024-01-30T03:52:07;7.40;96.60
30889;DHT22;51092;50.874;7.024;2024-01-30T03:53:10;7.40;96.80
30889;DHT22;51092;50.874;7.024;2024-01-30T03:54:11;7.40;97.00
30889;DHT22;51092;50.874;7.024;2024-01-30T03:55:17;7.40;97.30
30889;DHT22;51092;50.874;7.024;2024-01-30T03:56:18;7.40;97.00
30889;DHT22;51092;50.874;7.024;2024-01-30T03:57:21;7.40;97.10
30889;DHT22;51092;50.874;7.024;2024-01-30T03:58:23;7.40;97.40
30889;DHT22;51092;50.874;7.024;2024-01-30T03:59:24;7.40;97.30
30889;DHT22;51092;50.874;7.024;2024-01-30T04:00:27;7.40;97.50
30889;DHT22;51092;50.874;7.024;2024-01-30T04:01:29;7.40;97.50
30889;DHT22;51092;50.874;7.024;2024-01-30T04:02:31;7.40;97.40
30889;DHT22;51092;50.874;7.024;2024-01-30T04:03:33;7.40;97.10
30889;DHT22;51092;50.874;7.024;2024-01-30T04:04:34;7.40;97.20
30889;DHT22;51092;50.874;7.024;2024-01-30T04:05:37;7.30;97.50
30889;DHT22;51092;50.874;7.024;2024-01-30T04:06:38;7.40;97.60
30889;DHT22;51092;50.874;7.024;2024-01-30T04:07:41;7.50;97.40
30889;DHT22;51092;50.874;7.024;2024-01-30T04:08:42;7.50;96.90
30889;DHT22;51092;50.874;7.024;2024-01-30T04:09:44;7.50;96.50
30889;DHT22;51092;50.874;7.024;2024-01-30T04:10:47;7.50;96.50
30889;DHT22;51092;50.874;7.024;2024-01-30T04:11:49;7.40;96.90
30889;DHT22;51092;50.874;7.024;2024-01-30T04:12:54;7.40;97.30
30889;DHT22;51092;50.874;7.024;2024-01-30T04:13:55;7.30;97.40
30889;DHT22;51092;50.874;7.024;2024-01-30T04:14:58;7.30;97.70
30889;DHT22;51092;50.874;7.024;2024-01-30T04:16:00;7.40;97.60
30889;DHT22;51092;50.874;7.024;2024-01-30T04:17:02;7.40;97.30
30889;DHT22;51092;50.874;7.024;2024-01-30T04:18:05;7.40;97.50
30889;DHT22;51092;50.874;7.024;2024-01-30T04:19:06;7.50;97.40
30889;DHT22;51092;50.874;7.024;2024-01-30T04:20:13;7.40;97.10
30889;DHT22;51092;50.874;7.024;2024-01-30T04:21:15;7.40;97.20
30889;DHT22;51092;50.874;7.024;2024-01-30T04:22:19;7.40;97.20
30889;DHT22;51092;50.874;7.024;2024-01-30T04:23:21;7.30;97.40
30889;DHT22;51092;50.874;7.024;2024-01-30T04:24:23;7.30;97.80
30889;DHT22;51092;50.874;7.024;2024-01-30T04:25:24;7.40;98.10
30889;DHT22;51092;50.874;7.024;2024-01-30T04:26:29;7.40;97.40
30889;DHT22;51092;50.874;7.024;2024-01-30T04:27:31;7.30;97.60
30889;DHT22;51092;50.874;7.024;2024-01-30T04:28:33;7.30;97.80
30889;DHT22;51092;50.874;7.024;2024-01-30T04:29:35;7.20;98.10
30889;DHT22;51092;50.874;7.024;2024-01-30T04:30:38;7.30;98.00
30889;DHT22;51092;50.874;7.024;2024-01-30T04:31:39;7.20;98.20
30889;DHT22;51092;50.874;7.024;2024-01-30T04:32:43;7.20;98.30
30889;DHT22;51092;50.874;7.024;2024-01-30T04:33:44;7.30;98.30
30889;DHT22;51092;50.874;7.024;2024-01-30T04:34:47;7.30;98.20
30889;DHT22;51092;50.874;7.024;2024-01-30T04:35:48;7.30;98.30
30889;DHT22;51092;50.874;7.024;2024-01-30T04:36:51;7.20;98.20
30889;DHT22;51092;50.874;7.024;2024-01-30T04:37:53;7.30;98.30
30889;DHT22;51092;50.874;7.024;2024-01-30T04:38:55;7.30;98.10
30889;DHT22;51092;50.874;7.024;2024-01-30T04:39:59;7.30;98.30
30889;DHT22;51092;50.874;7.024;2024-01-30T04:41:01;7.30;97.80
30889;DHT22;51092;50.874;7.024;2024-01-30T04:42:05;7.30;97.90
30889;DHT22;51092;50.874;7.024;2024-01-30T04:43:07;7.20;98.30
30889;DHT22;51092;50.874;7.024;2024-01-30T04:44:09;7.20;98.80
30889;DHT22;51092;50.874;7.024;2024-01-30T04:45:11;7.20;99.10
30889;DHT22;51092;50.874;7.024;2024-01-30T04:46:14;7.20;99.10
30889;DHT22;51092;50.874;7.024;2024-01-30T04:47:16;7.30;99.10
30889;DHT22;51092;50.874;7.024;2024-01-30T04:48:18;7.20;99.00
30889;DHT22;51092;50.874;7.024;2024-01-30T04:49:20;7.20;99.00
30889;DHT22;51092;50.874;7.024;2024-01-30T04:50:21;7.20;99.10
30889;DHT22;51092;50.874;7.024;2024-01-30T04:51:24;7.20;99.20
30889;DHT22;51092;50.874;7.024;2024-01-30T04:52:25;7.20;99.30
30889;DHT22;51092;50.874;7.024;2024-01-30T04:53:28;7.20;99.40
30889;DHT22;51092;50.874;7.024;2024-01-30T04:54:29;7.10;99.30
30889;DHT22;51092;50.874;7.024;2024-01-30T04:55:31;7.10;99.30
30889;DHT22;51092;50.874;7.024;2024-01-30T04:56:33;7.10;99.10
30889;DHT22;51092;50.874;7.024;2024-01-30T04:57:36;7.10;99.20
30889;DHT22;51092;50.874;7.024;2024-01-30T04:58:39;7.10;99.50
30889;DHT22;51092;50.874;7.024;2024-01-30T04:59:40;7.10;99.40
30889;DHT22;51092;50.874;7.024;2024-01-30T05:00:43;7.10;99.40
30889;DHT22;51092;50.874;7.024;2024-01-30T05:01:44;7.10;99.40
30889;DHT22;51092;50.874;7.024;2024-01-30T05:02:47;7.10;99.40
30889;DHT22;51092;50.874;7.024;2024-01-30T05:03:48;7.10;99.50
30889;DHT22;51092;50.874;7.024;2024-01-30T05:04:51;7.10;99.50
30889;DHT22;51092;50.874;7.024;2024-01-30T05:05:52;7.00;99.30
30889;DHT22;51092;50.874;7.024;2024-01-30T05:06:53;7.00;99.50
30889;DHT22;51092;50.874;7.024;2024-01-30T05:07:56;7.00;99.60
30889;DHT22;51092;50.874;7.024;2024-01-30T05:08:57;7.00;99.60
30889;DHT22;51092;50.874;7.024;2024-01-30T05:10:00;7.00;99.50
30889;DHT22;51092;50.874;7.024;2024-01-30T05:11:01;7.00;99.40
30889;DHT22;51092;50.874;7.024;2024-01-30T05:12:16;7.00;99.40
30889;DHT22;51092;50.874;7.024;2024-01-30T05:13:19;6.90;99.30
30889;DHT22;51092;50.874;7.024;2024-01-30T05:14:24;7.00;99.20
30889;DHT22;51092;50.874;7.024;2024-01-30T05:15:25;6.90;99.30
30889;DHT22;51092;50.874;7.024;2024-01-30T05:16:28;6.90;99.40
30889;DHT22;51092;50.874;7.024;2024-01-30T05:17:29;6.90;99.40
30889;DHT22;51092;50.874;7.024;2024-01-30T05:18:32;6.90;99.30
30889;DHT22;51092;50.874;7.024;2024-01-30T05:19:33;6.90;99.70
30889;DHT22;51092;50.874;7.024;2024-01-30T05:20:35;6.90;99.20
30889;DHT22;51092;50.874;7.024;2024-01-30T05:21:37;6.90;99.60
30889;DHT22;51092;50.874;7.024;2024-01-30T05:22:40;6.90;99.70
30889;DHT22;51092;50.874;7.024;2024-01-30T05:23:46;6.80;99.80
30889;DHT22;51092;50.874;7.024;2024-01-30T05:24:48;6.90;99.90
30889;DHT22;51092;50.874;7.024;2024-01-30T05:25:50;6.80;99.90
30889;DHT22;51092;50.874;7.024;2024-01-30T05:26:52;6.80;99.90
30889;DHT22;51092;50.874;7.024;2024-01-30T05:27:54;6.90;99.90
30889;DHT22;51092;50.874;7.024;2024-01-30T05:28:58;6.80;99.80
30889;DHT22;51092;50.874;7.024;2024-01-30T05:30:00;6.80;99.80
30889;DHT22;51092;50.874;7.024;2024-01-30T05:31:02;6.80;99.90
30889;DHT22;51092;50.874;7.024;2024-01-30T05:32:05;6.90;99.90
30889;DHT22;51092;50.874;7.024;2024-01-30T05:33:07;6.80;99.70
30889;DHT22;51092;50.874;7.024;2024-01-30T05:34:10;6.80;99.80
30889;DHT22;51092;50.874;7.024;2024-01-30T05:35:12;6.90;99.90
30889;DHT22;51092;50.874;7.024;2024-01-30T05:36:13;6.80;99.70
30889;DHT22;51092;50.874;7.024;2024-01-30T05:37:16;6.80;99.90
30889;DHT22;51092;50.874;7.024;2024-01-30T05:38:18;6.90;99.90
30889;DHT22;51092;50.874;7.024;2024-01-30T05:39:20;6.90;99.90
30889;DHT22;51092;50.874;7.024;2024-01-30T05:40:23;7.00;99.90
30889;DHT22;51092;50.874;7.024;2024-01-30T05:41:28;7.10;99.80
30889;DHT22;51092;50.874;7.024;2024-01-30T05:42:29;7.10;99.60
30889;DHT22;51092;50.874;7.024;2024-01-30T05:43:30;7.10;99.50
30889;DHT22;51092;50.874;7.024;2024-01-30T05:44:34;7.10;98.90
30889;DHT22;51092;50.874;7.024;2024-01-30T05:45:36;7.10;98.70
30889;DHT22;51092;50.874;7.024;2024-01-30T05:46:38;7.20;98.40
30889;DHT22;51092;50.874;7.024;2024-01-30T05:47:40;7.10;98.50
30889;DHT22;51092;50.874;7.024;2024-01-30T05:48:42;7.20;98.50
30889;DHT22;51092;50.874;7.024;2024-01-30T05:49:44;7.10;98.40
30889;DHT22;51092;50.874;7.024;2024-01-30T05:50:46;7.10;98.60
30889;DHT22;51092;50.874;7.024;2024-01-30T05:51:48;7.10;98.70
30889;DHT22;51092;50.874;7.024;2024-01-30T05:52:50;7.20;98.60
30889;DHT22;51092;50.874;7.024;2024-01-30T05:53:52;7.10;98.40
30889;DHT22;51092;50.874;7.024;2024-01-30T05:54:53;7.20;98.30
30889;DHT22;51092;50.874;7.024;2024-01-30T05:55:56;7.00;98.60
30889;DHT22;51092;50.874;7.024;2024-01-30T05:56:57;7.00;98.80
30889;DHT22;51092;50.874;7.024;2024-01-30T05:58:00;7.00;98.90
30889;DHT22;51092;50.874;7.024;2024-01-30T05:59:02;7.00;99.40
30889;DHT22;51092;50.874;7.024;2024-01-30T06:00:07;6.90;99.60
30889;DHT22;51092;50.874;7.024;2024-01-30T06:01:09;6.90;99.90
30889;DHT22;51092;50.874;7.024;2024-01-30T06:02:15;6.90;99.90
30889;DHT22;51092;50.874;7.024;2024-01-30T06:03:16;6.90;99.90
30889;DHT22;51092;50.874;7.024;2024-01-30T06:04:18;7.00;99.90
30889;DHT22;51092;50.874;7.024;2024-01-30T06:05:20;6.90;99.90
30889;DHT22;51092;50.874;7.024;2024-01-30T06:06:22;6.90;99.90
30889;DHT22;51092;50.874;7.024;2024-01-30T06:07:24;6.90;99.90
30889;DHT22;51092;50.874;7.024;2024-01-30T06:08:26;6.90;99.90
30889;DHT22;51092;50.874;7.024;2024-01-30T06:09:28;6.90;99.90
30889;DHT22;51092;50.874;7.024;2024-01-30T06:10:30;6.90;99.90
30889;DHT22;51092;50.874;7.024;2024-01-30T06:11:32;6.90;99.90
30889;DHT22;51092;50.874;7.024;2024-01-30T06:12:34;7.00;99.90
30889;DHT22;51092;50.874;7.024;2024-01-30T06:13:37;6.90;99.90
30889;DHT22;51092;50.874;7.024;2024-01-30T06:14:38;6.90;99.90
30889;DHT22;51092;50.874;7.024;2024-01-30T06:15:44;6.90;99.90
30889;DHT22;51092;50.874;7.024;2024-01-30T06:16:45;7.00;99.90
30889;DHT22;51092;50.874;7.024;2024-01-30T06:17:46;7.00;99.90
30889;DHT22;51092;50.874;7.024;2024-01-30T06:18:48;6.90;99.90
30889;DHT22;51092;50.874;7.024;2024-01-30T06:19:50;6.90;99.90
30889;DHT22;51092;50.874;7.024;2024-01-30T06:20:52;6.90;99.90
30889;DHT22;51092;50.874;7.024;2024-01-30T06:21:54;6.90;99.90
30889;DHT22;51092;50.874;7.024;2024-01-30T06:22:56;6.90;99.90
30889;DHT22;51092;50.874;7.024;2024-01-30T06:23:58;6.90;99.90
30889;DHT22;51092;50.874;7.024;2024-01-30T06:25:00;6.90;99.90
30889;DHT22;51092;50.874;7.024;2024-01-30T06:26:02;6.90;99.90
30889;DHT22;51092;50.874;7.024;2024-01-30T06:27:03;6.90;99.90
30889;DHT22;51092;50.874;7.024;2024-01-30T06:28:05;6.90;99.90
30889;DHT22;51092;50.874;7.024;2024-01-30T06:29:06;7.00;99.90
30889;DHT22;51092;50.874;7.024;2024-01-30T06:30:10;7.00;99.90
30889;DHT22;51092;50.874;7.024;2024-01-30T06:31:13;6.90;99.90
30889;DHT22;51092;50.874;7.024;2024-01-30T06:32:16;6.90;99.90
30889;DHT22;51092;50.874;7.024;2024-01-30T06:33:17;6.90;99.90
30889;DHT22;51092;50.874;7.024;2024-01-30T06:34:19;6.90;99.90
30889;DHT22;51092;50.874;7.024;2024-01-30T06:35:21;6.90;99.90
30889;DHT22;51092;50.874;7.024;2024-01-30T06:36:23;7.00;99.90
30889;DHT22;51092;50.874;7.024;2024-01-30T06:37:25;6.90;99.90
30889;DHT22;51092;50.874;7.024;2024-01-30T06:38:26;6.90;99.90
30889;DHT22;51092;50.874;7.024;2024-01-30T06:39:29;6.90;99.90